Floreffe, Belgium
Current Conditions -  °F | °C
As of 11:20 AM on Tuesday 21 Oct 2014 (Local Time) from EBCI Reporting Station
Moderate Rain Moderate Rain  
Wind Chill: 11°   Ceiling: 1100
Heat Index: 11°   Visibility: 2.5mi
Dew Point: 10°   Wind: 18mph
Humidity: 94%   Direction: 210°SSW
Pressure: 29.71"   Gusts: 30mph
Location:  50.43°N, 4.76°E
Report Text: EBCI 210920Z 21016G26KT 4000 RA SCT004 BKN011 11/10 Q1006 NOSIG
Loading
Personal Weather Stations






























Interactive Weather Map
Tropical Storm Tracking
New forecast layout! Learn more

10-Day Weather Forecast

Advertisements
Track Severe Weather on mobile